createdAt,value
2022-09-14T00:00:09.084Z,84.45
2022-09-14T00:02:10.702Z,84.03
2022-09-14T00:04:13.839Z,83.84
2022-09-14T00:06:15.890Z,83.82
2022-09-14T00:08:17.424Z,83.94
2022-09-14T00:10:18.920Z,83.77
2022-09-14T00:12:20.415Z,83.67
2022-09-14T00:14:21.941Z,83.17
2022-09-14T00:16:24.674Z,82.94
2022-09-14T00:18:26.231Z,83.19
2022-09-14T00:20:27.745Z,83.41
2022-09-14T00:22:29.229Z,83.24
2022-09-14T00:24:31.058Z,83.32
2022-09-14T00:26:32.895Z,83.60
2022-09-14T00:28:38.187Z,83.66
2022-09-14T00:30:41.526Z,83.74
2022-09-14T00:32:43.038Z,84.09
2022-09-14T00:34:44.727Z,84.16
2022-09-14T00:36:47.469Z,84.33
2022-09-14T00:38:49.293Z,84.70
2022-09-14T00:41:27.343Z,84.80
2022-09-14T00:43:30.033Z,85.23
2022-09-14T00:45:31.803Z,84.58
2022-09-14T00:48:40.361Z,84.51
2022-09-14T00:50:42.013Z,84.62
2022-09-14T00:52:44.834Z,84.49
2022-09-14T00:54:50.393Z,84.54
2022-09-14T00:56:51.948Z,84.34
2022-09-14T00:58:53.508Z,84.47
2022-09-14T01:01:14.315Z,84.09
2022-09-14T01:03:15.906Z,84.08
2022-09-14T01:05:17.504Z,84.06
2022-09-14T01:07:19.175Z,83.86
2022-09-14T01:09:40.149Z,84.01
2022-09-14T01:11:53.542Z,84.21
2022-09-14T01:13:55.026Z,84.15
2022-09-14T01:15:59.063Z,83.51
2022-09-14T01:18:08.309Z,83.36
2022-09-14T01:20:19.899Z,83.45
2022-09-14T01:22:24.021Z,83.05
2022-09-14T01:24:30.379Z,82.93
2022-09-14T01:26:44.111Z,83.13
2022-09-14T01:28:51.058Z,82.70
2022-09-14T01:30:52.715Z,82.79
2022-09-14T01:33:06.378Z,82.91
2022-09-14T01:35:15.791Z,83.17
2022-09-14T01:37:21.240Z,83.37
2022-09-14T01:39:22.841Z,83.35
2022-09-14T01:41:24.770Z,83.59
2022-09-14T01:43:30.139Z,83.86
2022-09-14T01:45:31.744Z,84.04
2022-09-14T01:47:47.419Z,84.30
2022-09-14T01:49:51.662Z,84.48
2022-09-14T01:51:58.620Z,84.75
2022-09-14T01:54:20.723Z,84.65
2022-09-14T01:56:23.791Z,85.05
2022-09-14T01:58:34.792Z,85.00
2022-09-14T02:00:37.099Z,84.48
2022-09-14T02:02:39.794Z,84.50
2022-09-14T02:04:49.311Z,84.40
2022-09-14T02:06:50.874Z,84.47
2022-09-14T02:08:52.405Z,84.45
2022-09-14T02:10:53.958Z,84.28
2022-09-14T02:12:55.528Z,84.05
2022-09-14T02:14:57.068Z,83.47
2022-09-14T02:16:58.678Z,83.82
2022-09-14T02:19:01.697Z,83.38
2022-09-14T02:21:04.723Z,83.34
2022-09-14T02:23:06.262Z,83.34
2022-09-14T02:25:07.983Z,83.28
2022-09-14T02:27:09.502Z,83.28
2022-09-14T02:29:10.996Z,83.21
2022-09-14T02:31:21.898Z,83.55
2022-09-14T02:33:27.481Z,83.73
2022-09-14T02:35:32.536Z,83.46
2022-09-14T02:37:54.361Z,83.51
2022-09-14T02:40:08.199Z,83.73
2022-09-14T02:42:17.899Z,83.54
2022-09-14T02:44:45.662Z,83.64
2022-09-14T02:46:50.160Z,83.86
2022-09-14T02:48:57.402Z,83.92
2022-09-14T02:50:58.917Z,83.84
2022-09-14T02:53:09.943Z,83.83
2022-09-14T02:55:24.423Z,83.99
2022-09-14T02:57:26.213Z,83.91
2022-09-14T02:59:27.909Z,83.88
2022-09-14T03:01:29.571Z,84.02
2022-09-14T03:03:35.484Z,84.03
2022-09-14T03:05:37.535Z,84.28
2022-09-14T03:07:39.027Z,84.22
2022-09-14T03:09:40.530Z,84.19
2022-09-14T03:11:42.049Z,84.11
2022-09-14T03:13:44.534Z,84.17
2022-09-14T03:15:46.228Z,84.35
2022-09-14T03:17:48.164Z,84.34
2022-09-14T03:19:49.874Z,84.54
2022-09-14T03:21:51.944Z,84.67
2022-09-14T03:23:55.251Z,85.08
2022-09-14T03:25:56.751Z,85.16
2022-09-14T03:27:58.979Z,85.42
2022-09-14T03:30:00.532Z,85.58
2022-09-14T03:32:02.253Z,85.55
2022-09-14T03:34:04.010Z,85.51
2022-09-14T03:36:12.848Z,85.52
2022-09-14T03:38:14.353Z,85.49
2022-09-14T03:40:21.440Z,85.78
2022-09-14T03:42:23.551Z,85.34
2022-09-14T03:44:25.112Z,85.20
2022-09-14T03:46:26.745Z,85.30
2022-09-14T03:48:29.273Z,85.28
2022-09-14T03:50:30.840Z,85.37
2022-09-14T03:52:33.243Z,85.35
2022-09-14T03:54:34.754Z,85.37
2022-09-14T03:56:36.261Z,85.57
2022-09-14T03:58:37.768Z,85.32
2022-09-14T04:00:40.081Z,85.20
2022-09-14T04:02:42.115Z,84.97
2022-09-14T04:04:43.664Z,84.96
2022-09-14T04:06:45.234Z,84.87
2022-09-14T04:08:47.126Z,85.04
2022-09-14T04:10:49.280Z,85.20
2022-09-14T04:12:50.797Z,85.14
2022-09-14T04:14:52.326Z,85.21
2022-09-14T04:16:53.858Z,85.22
2022-09-14T04:18:55.355Z,85.14
2022-09-14T04:20:57.760Z,85.31
2022-09-14T04:22:59.267Z,85.41
2022-09-14T04:25:00.778Z,85.27
2022-09-14T04:27:02.300Z,85.67
2022-09-14T04:29:03.819Z,85.65
2022-09-14T04:31:05.605Z,85.74
2022-09-14T04:33:07.105Z,85.68
2022-09-14T04:35:08.990Z,85.82
2022-09-14T04:37:10.489Z,85.92
2022-09-14T04:39:12.455Z,85.88
2022-09-14T04:41:15.025Z,85.86
2022-09-14T04:43:16.607Z,85.88
2022-09-14T04:45:18.110Z,85.94
2022-09-14T04:47:19.635Z,85.81
2022-09-14T04:49:39.519Z,85.91
2022-09-14T04:51:41.058Z,86.05
2022-09-14T04:53:42.876Z,85.76
2022-09-14T04:55:44.586Z,85.67
2022-09-14T05:00:02.407Z,86.04
2022-09-14T05:02:04.076Z,86.12
2022-09-14T05:04:06.335Z,86.20
2022-09-14T05:06:09.069Z,86.48
2022-09-14T05:08:10.654Z,86.69
2022-09-14T05:10:12.203Z,86.68
2022-09-14T05:12:13.736Z,86.68
2022-09-14T05:14:15.345Z,86.86
2022-09-14T05:16:56.451Z,87.19
2022-09-14T05:19:01.218Z,87.35
2022-09-14T05:21:08.577Z,87.23
2022-09-14T05:23:10.249Z,86.83
2022-09-14T05:25:11.771Z,86.63
2022-09-14T05:27:13.280Z,86.34
2022-09-14T05:29:15.619Z,86.66
2022-09-14T05:31:17.234Z,86.59
2022-09-14T05:33:19.155Z,86.44
2022-09-14T05:35:20.652Z,86.57
2022-09-14T05:37:38.436Z,86.37
2022-09-14T05:39:42.107Z,86.26
2022-09-14T05:41:43.788Z,86.04
2022-09-14T05:43:45.615Z,86.43
2022-09-14T05:45:47.153Z,86.63
2022-09-14T05:47:48.736Z,86.41
2022-09-14T05:49:50.402Z,85.97
2022-09-14T05:51:51.996Z,86.30
2022-09-14T05:53:54.816Z,86.13
2022-09-14T05:56:06.655Z,85.72
2022-09-14T05:58:08.260Z,85.78
2022-09-14T06:00:10.032Z,85.75
2022-09-14T06:02:15.309Z,85.81
2022-09-14T06:04:19.100Z,85.77
2022-09-14T06:06:20.884Z,85.95
2022-09-14T06:08:23.606Z,85.97
2022-09-14T06:10:25.091Z,85.80
2022-09-14T06:12:27.435Z,85.69
2022-09-14T06:14:29.022Z,85.44
2022-09-14T06:16:30.577Z,85.74
2022-09-14T06:19:02.012Z,85.76
2022-09-14T06:21:03.998Z,85.47
2022-09-14T06:23:13.421Z,85.57
2022-09-14T06:25:15.212Z,85.76
2022-09-14T06:27:16.958Z,85.24
2022-09-14T06:29:18.504Z,85.15
2022-09-14T06:31:22.692Z,84.96
2022-09-14T06:33:24.443Z,84.97
2022-09-14T06:35:25.987Z,85.27
2022-09-14T06:37:27.586Z,85.30
2022-09-14T06:39:29.115Z,85.04
2022-09-14T06:41:32.877Z,84.89
2022-09-14T06:43:35.849Z,84.77
2022-09-14T06:45:37.503Z,84.63
2022-09-14T06:47:39.036Z,84.61
2022-09-14T06:49:40.630Z,84.82
2022-09-14T06:51:42.993Z,85.09
2022-09-14T06:53:45.032Z,85.20
2022-09-14T06:55:46.633Z,85.03
2022-09-14T06:57:48.821Z,85.15
2022-09-14T06:59:50.407Z,85.40
2022-09-14T07:01:51.971Z,85.40
2022-09-14T07:03:53.819Z,85.46
2022-09-14T07:06:01.095Z,85.57
2022-09-14T07:08:02.591Z,85.59
2022-09-14T07:10:04.314Z,85.33
2022-09-14T07:12:14.094Z,85.27
2022-09-14T07:16:31.870Z,84.94
2022-09-14T07:18:34.276Z,84.71
2022-09-14T07:20:35.832Z,84.82
2022-09-14T07:22:37.420Z,84.01
2022-09-14T07:24:38.974Z,83.91
2022-09-14T07:26:42.334Z,83.97
2022-09-14T07:28:44.550Z,84.14
2022-09-14T07:30:46.060Z,83.86
2022-09-14T07:32:47.599Z,83.92
2022-09-14T07:34:49.116Z,83.72
2022-09-14T07:36:51.609Z,83.43
2022-09-14T07:38:53.712Z,82.73
2022-09-14T07:40:57.935Z,83.02
2022-09-14T07:43:01.857Z,82.29
2022-09-14T07:45:04.363Z,81.89
2022-09-14T07:47:06.000Z,81.82
2022-09-14T07:49:09.247Z,82.09
2022-09-14T07:51:11.118Z,81.95
2022-09-14T07:53:12.807Z,82.06
2022-09-14T07:55:14.351Z,82.01
2022-09-14T07:57:17.059Z,81.86
2022-09-14T07:59:35.569Z,82.01
2022-09-14T08:01:37.998Z,81.35
2022-09-14T08:03:40.488Z,81.07
2022-09-14T08:05:43.258Z,81.74
2022-09-14T08:07:44.754Z,81.89
2022-09-14T08:09:47.249Z,81.88
2022-09-14T08:11:48.757Z,81.33
2022-09-14T08:13:51.531Z,80.91
2022-09-14T08:15:53.019Z,80.53
2022-09-14T08:17:54.531Z,79.92
2022-09-14T08:19:56.029Z,79.96
2022-09-14T08:21:57.898Z,79.89
2022-09-14T08:23:59.775Z,79.77
2022-09-14T08:26:05.541Z,79.06
2022-09-14T08:28:07.031Z,79.30
2022-09-14T08:30:09.991Z,79.83
2022-09-14T08:32:13.894Z,78.99
2022-09-14T08:34:15.936Z,79.34
2022-09-14T08:36:18.537Z,79.14
2022-09-14T08:38:20.029Z,78.58
2022-09-14T08:40:22.022Z,78.47
2022-09-14T08:42:25.172Z,77.95
2022-09-14T08:44:37.995Z,77.02
2022-09-14T08:46:40.653Z,77.55
2022-09-14T08:48:44.387Z,77.63
2022-09-14T08:50:45.886Z,77.86
2022-09-14T08:52:47.341Z,77.56
2022-09-14T08:54:59.186Z,77.70
2022-09-14T08:57:07.744Z,77.28
2022-09-14T08:59:28.144Z,76.57
2022-09-14T09:01:29.827Z,77.35
2022-09-14T09:03:34.099Z,76.91
2022-09-14T09:05:36.930Z,76.19
2022-09-14T09:07:48.970Z,76.23
2022-09-14T09:09:51.258Z,75.68
2022-09-14T09:11:53.497Z,75.50
2022-09-14T09:13:55.087Z,75.33
2022-09-14T09:16:00.193Z,74.88
2022-09-14T09:18:22.001Z,75.22
2022-09-14T09:20:26.587Z,75.66
2022-09-14T09:22:29.728Z,75.34
2022-09-14T09:24:40.082Z,75.70
2022-09-14T09:26:42.228Z,76.52
2022-09-14T09:28:49.883Z,75.56
2022-09-14T09:30:52.099Z,75.85
2022-09-14T09:32:53.635Z,75.31
2022-09-14T09:34:55.177Z,75.17
2022-09-14T09:36:56.825Z,75.07
2022-09-14T09:39:02.939Z,74.90
2022-09-14T09:41:23.197Z,74.70
2022-09-14T09:43:45.712Z,74.97
2022-09-14T09:45:47.410Z,74.96
2022-09-14T09:47:49.958Z,74.61
2022-09-14T09:49:57.436Z,74.52
2022-09-14T09:52:21.720Z,74.81
2022-09-14T09:54:24.718Z,74.25
2022-09-14T09:56:26.958Z,74.40
2022-09-14T09:58:28.466Z,74.05
2022-09-14T10:00:30.124Z,74.32
2022-09-14T10:02:32.218Z,73.84
2022-09-14T10:04:35.363Z,74.37
2022-09-14T10:06:49.818Z,74.63
2022-09-14T10:08:51.309Z,75.19
2022-09-14T10:10:52.823Z,74.67
2022-09-14T10:12:55.612Z,74.61
2022-09-14T10:15:06.036Z,74.61
2022-09-14T10:17:17.296Z,74.69
2022-09-14T10:19:22.071Z,74.82
2022-09-14T10:21:23.993Z,74.04
2022-09-14T10:23:26.507Z,75.17
2022-09-14T10:25:29.201Z,75.06
2022-09-14T10:27:37.793Z,74.90
2022-09-14T10:29:43.062Z,73.20
2022-09-14T10:31:44.715Z,72.77
2022-09-14T10:33:46.953Z,72.49
2022-09-14T10:35:57.643Z,72.32
2022-09-14T10:38:08.206Z,72.27
2022-09-14T10:40:20.914Z,72.59
2022-09-14T10:42:25.531Z,72.95
2022-09-14T10:44:46.415Z,72.05
2022-09-14T10:47:01.362Z,70.00
2022-09-14T10:49:05.636Z,68.05
2022-09-14T10:51:19.133Z,66.53
2022-09-14T10:53:33.830Z,66.04
2022-09-14T10:55:44.813Z,63.54
2022-09-14T10:58:06.810Z,64.51
2022-09-14T11:00:12.251Z,63.67
2022-09-14T11:02:35.951Z,63.01
2022-09-14T11:04:59.020Z,61.41
2022-09-14T11:07:06.554Z,59.44
2022-09-14T11:09:14.260Z,59.11
2022-09-14T11:11:37.783Z,57.77
2022-09-14T11:13:59.750Z,57.27
2022-09-14T11:16:01.296Z,57.56
2022-09-14T11:18:53.499Z,56.09
2022-09-14T11:21:01.203Z,55.14
2022-09-14T11:23:21.893Z,55.36
2022-09-14T11:25:42.415Z,55.76
2022-09-14T11:27:44.935Z,55.99
2022-09-14T11:29:46.421Z,55.94
2022-09-14T11:32:16.874Z,55.81
2022-09-14T11:34:26.027Z,56.20
2022-09-14T11:36:34.768Z,55.91
2022-09-14T11:38:36.843Z,55.91
2022-09-14T11:41:04.349Z,55.40
2022-09-14T11:43:24.546Z,56.96
2022-09-14T11:45:36.854Z,57.58
2022-09-14T11:47:40.597Z,58.84
2022-09-14T11:49:48.126Z,59.35
2022-09-14T11:51:51.940Z,60.69
2022-09-14T11:53:53.506Z,61.29
2022-09-14T11:55:55.005Z,61.89
2022-09-14T11:57:58.078Z,61.36
2022-09-14T12:00:00.558Z,59.96
2022-09-14T12:02:21.188Z,56.82
2022-09-14T12:04:23.755Z,55.59
2022-09-14T12:06:31.136Z,55.81
2022-09-14T12:08:32.812Z,55.25
2022-09-14T12:10:54.287Z,56.03
2022-09-14T12:13:22.054Z,55.96
2022-09-14T12:15:26.378Z,55.41
2022-09-14T12:17:41.728Z,53.93
2022-09-14T12:19:46.619Z,53.68
2022-09-14T12:21:48.177Z,51.58
2022-09-14T12:23:52.491Z,51.44
2022-09-14T12:25:55.349Z,51.56
2022-09-14T12:27:56.849Z,51.79
2022-09-14T12:29:58.787Z,53.61
2022-09-14T12:32:01.420Z,53.49
2022-09-14T12:34:13.982Z,53.96
2022-09-14T12:36:21.567Z,52.90
2022-09-14T12:38:31.960Z,52.62
2022-09-14T12:40:34.610Z,51.70
2022-09-14T12:42:36.206Z,50.03
2022-09-14T12:44:38.841Z,50.98
2022-09-14T12:46:40.561Z,52.27
2022-09-14T12:48:48.417Z,52.42
2022-09-14T12:50:50.533Z,51.25
2022-09-14T12:52:52.045Z,50.80
2022-09-14T12:55:03.142Z,50.17
2022-09-14T12:57:04.651Z,50.08
2022-09-14T12:59:28.266Z,50.61
2022-09-14T13:01:32.977Z,50.00
2022-09-14T13:03:41.036Z,49.64
2022-09-14T13:05:48.416Z,47.91
2022-09-14T13:07:50.230Z,48.74
2022-09-14T13:09:53.070Z,48.84
2022-09-14T13:11:56.393Z,49.48
2022-09-14T13:13:58.093Z,49.66
2022-09-14T13:16:00.584Z,49.53
2022-09-14T13:18:03.647Z,50.76
2022-09-14T13:20:06.128Z,50.63
2022-09-14T13:22:25.926Z,49.47
2022-09-14T13:24:27.423Z,49.58
2022-09-14T13:26:29.854Z,48.09
2022-09-14T13:28:32.084Z,47.69
2022-09-14T13:30:34.576Z,48.30
2022-09-14T13:32:36.861Z,49.00
2022-09-14T13:34:41.127Z,48.62
2022-09-14T13:36:42.814Z,48.14
2022-09-14T13:38:44.390Z,46.71
2022-09-14T13:40:46.197Z,46.36
2022-09-14T13:42:47.726Z,46.19
2022-09-14T13:44:50.011Z,46.99
2022-09-14T13:46:51.561Z,46.41
2022-09-14T13:48:53.570Z,47.02
2022-09-14T13:50:55.103Z,45.58
2022-09-14T13:53:02.630Z,45.17
2022-09-14T13:55:12.548Z,45.57
2022-09-14T13:57:19.014Z,46.62
2022-09-14T13:59:24.228Z,45.78
2022-09-14T14:01:27.009Z,44.79
2022-09-14T14:03:32.766Z,45.53
2022-09-14T14:05:36.289Z,45.10
2022-09-14T14:07:37.798Z,45.52
2022-09-14T14:09:52.025Z,46.00
2022-09-14T14:11:54.969Z,45.34
2022-09-14T14:13:56.767Z,44.93
2022-09-14T14:16:16.848Z,44.68
2022-09-14T14:18:50.775Z,45.25
2022-09-14T14:20:52.335Z,44.80
2022-09-14T14:22:55.012Z,44.43
2022-09-14T14:25:14.400Z,43.78
2022-09-14T14:27:35.987Z,44.66
2022-09-14T14:29:38.340Z,44.30
2022-09-14T14:31:45.858Z,43.64
2022-09-14T14:33:51.123Z,43.46
2022-09-14T14:35:53.866Z,44.47
2022-09-14T14:37:55.451Z,44.26
2022-09-14T14:39:57.144Z,43.41
2022-09-14T14:41:58.721Z,43.23
2022-09-14T14:44:00.254Z,42.73
2022-09-14T14:46:01.996Z,42.83
2022-09-14T14:48:03.778Z,42.79
2022-09-14T14:50:13.434Z,42.93
2022-09-14T14:52:15.965Z,43.24
2022-09-14T14:54:20.198Z,43.22
2022-09-14T14:56:21.749Z,43.14
2022-09-14T14:58:23.704Z,42.61
2022-09-14T15:00:25.230Z,42.18
2022-09-14T15:02:26.752Z,41.94
2022-09-14T15:04:28.409Z,42.16
2022-09-14T15:06:32.765Z,42.39
2022-09-14T15:08:34.275Z,41.72
2022-09-14T15:10:35.828Z,41.24
2022-09-14T15:12:38.779Z,40.98
2022-09-14T15:14:40.293Z,41.50
2022-09-14T15:16:42.062Z,41.92
2022-09-14T15:18:43.854Z,40.53
2022-09-14T15:20:45.484Z,39.79
2022-09-14T15:22:47.536Z,40.21
2022-09-14T15:24:49.079Z,40.13
2022-09-14T15:26:50.576Z,40.21
2022-09-14T15:28:52.785Z,40.71
2022-09-14T15:30:54.428Z,40.74
2022-09-14T15:32:55.923Z,40.20
2022-09-14T15:34:57.502Z,39.85
2022-09-14T15:36:59.057Z,39.73
2022-09-14T15:39:00.597Z,39.85
2022-09-14T15:41:02.225Z,40.08
2022-09-14T15:43:04.349Z,40.41
2022-09-14T15:45:06.319Z,40.43
2022-09-14T15:47:08.271Z,40.09
2022-09-14T15:49:19.938Z,39.83
2022-09-14T15:51:24.017Z,39.26
2022-09-14T15:53:25.529Z,39.48
2022-09-14T15:55:30.074Z,39.57
2022-09-14T15:57:31.910Z,40.12
2022-09-14T15:59:33.618Z,39.18
2022-09-14T16:01:36.099Z,38.99
2022-09-14T16:03:37.730Z,39.08
2022-09-14T16:05:39.581Z,39.26
2022-09-14T16:07:41.255Z,39.03
2022-09-14T16:09:43.138Z,39.19
2022-09-14T16:11:44.816Z,39.09
2022-09-14T16:13:46.683Z,38.82
2022-09-14T16:15:48.239Z,38.42
2022-09-14T16:17:51.640Z,38.58
2022-09-14T16:19:54.418Z,38.41
2022-09-14T16:21:58.798Z,37.96
2022-09-14T16:24:00.943Z,37.59
2022-09-14T16:26:06.677Z,37.97
2022-09-14T16:28:08.229Z,38.03
2022-09-14T16:30:10.066Z,38.12
2022-09-14T16:32:13.978Z,38.60
2022-09-14T16:34:20.167Z,38.09
2022-09-14T16:36:22.842Z,38.38
2022-09-14T16:38:24.343Z,38.27
2022-09-14T16:40:26.154Z,38.14
2022-09-14T16:42:27.689Z,38.33
2022-09-14T16:44:29.442Z,38.27
2022-09-14T16:46:31.382Z,38.71
2022-09-14T16:48:33.778Z,38.62
2022-09-14T16:50:35.539Z,38.16
2022-09-14T16:52:37.029Z,38.73
2022-09-14T16:54:38.550Z,38.69
2022-09-14T16:56:40.172Z,38.53
2022-09-14T16:58:42.466Z,38.77
2022-09-14T17:00:44.458Z,39.18
2022-09-14T17:02:46.166Z,39.65
2022-09-14T17:04:48.777Z,40.17
2022-09-14T17:06:51.645Z,40.65
2022-09-14T17:08:53.895Z,41.02
2022-09-14T17:10:55.445Z,41.19
2022-09-14T17:12:56.974Z,40.73
2022-09-14T17:14:59.185Z,41.18
2022-09-14T17:17:01.103Z,41.28
2022-09-14T17:19:05.678Z,41.67
2022-09-14T17:21:08.929Z,42.13
2022-09-14T17:23:10.509Z,42.54
2022-09-14T17:25:16.713Z,43.05
2022-09-14T17:27:19.945Z,43.50
2022-09-14T17:29:21.564Z,43.99
2022-09-14T17:31:24.176Z,44.38
2022-09-14T17:33:25.987Z,44.57
2022-09-14T17:35:27.486Z,45.05
2022-09-14T17:37:29.069Z,45.39
2022-09-14T17:39:30.569Z,46.09
2022-09-14T17:41:33.207Z,46.30
2022-09-14T17:43:35.269Z,46.80
2022-09-14T17:45:39.279Z,47.18
2022-09-14T17:47:40.896Z,47.58
2022-09-14T17:49:42.438Z,47.99
2022-09-14T17:51:45.385Z,48.27
2022-09-14T17:53:47.770Z,48.45
2022-09-14T17:55:49.362Z,48.75
2022-09-14T17:57:50.956Z,49.35
2022-09-14T17:59:52.590Z,49.67
2022-09-14T18:01:54.239Z,49.65
2022-09-14T18:03:57.044Z,50.29
2022-09-14T18:05:58.689Z,51.31
2022-09-14T18:08:00.413Z,51.78
2022-09-14T18:10:04.858Z,52.56
2022-09-14T18:12:06.486Z,52.47
2022-09-14T18:14:09.873Z,52.58
2022-09-14T18:16:14.065Z,53.24
2022-09-14T18:18:15.666Z,53.64
2022-09-14T18:20:17.259Z,53.82
2022-09-14T18:22:18.751Z,53.73
2022-09-14T18:24:20.488Z,53.90
2022-09-14T18:26:22.607Z,54.23
2022-09-14T18:28:24.265Z,54.50
2022-09-14T18:30:25.743Z,54.44
2022-09-14T18:32:27.419Z,54.84
2022-09-14T18:34:31.865Z,55.48
2022-09-14T18:36:33.385Z,55.13
2022-09-14T18:38:34.964Z,55.30
2022-09-14T18:40:36.885Z,55.75
2022-09-14T18:42:38.407Z,55.53
2022-09-14T18:44:40.007Z,55.50
2022-09-14T18:46:41.568Z,55.71
2022-09-14T18:48:45.907Z,56.07
2022-09-14T18:50:47.421Z,55.98
2022-09-14T18:52:51.951Z,56.53
2022-09-14T18:54:53.496Z,56.33
2022-09-14T18:56:55.039Z,56.53
2022-09-14T18:58:56.549Z,56.56
2022-09-14T19:00:58.122Z,56.55
2022-09-14T19:02:59.734Z,56.66
2022-09-14T19:05:01.622Z,56.72
2022-09-14T19:07:03.604Z,56.62
2022-09-14T19:09:05.826Z,56.60
2022-09-14T19:11:11.846Z,56.87
2022-09-14T19:13:13.423Z,56.74
2022-09-14T19:15:14.997Z,56.87
2022-09-14T19:17:16.799Z,56.90
2022-09-14T19:19:18.454Z,57.05
2022-09-14T19:21:23.652Z,57.28
2022-09-14T19:23:25.608Z,57.57
2022-09-14T19:25:27.094Z,57.89
2022-09-14T19:27:28.762Z,58.13
2022-09-14T19:29:32.717Z,58.29
2022-09-14T19:31:34.293Z,58.43
2022-09-14T19:33:36.194Z,58.56
2022-09-14T19:35:37.759Z,58.81
2022-09-14T19:37:39.333Z,58.98
2022-09-14T19:39:42.640Z,59.12
2022-09-14T19:41:44.245Z,59.25
2022-09-14T19:43:45.831Z,59.49
2022-09-14T19:45:47.431Z,59.79
2022-09-14T19:47:49.063Z,59.97
2022-09-14T19:49:50.833Z,59.97
2022-09-14T19:51:52.543Z,60.25
2022-09-14T19:53:54.782Z,60.18
2022-09-14T19:55:56.371Z,60.28
2022-09-14T19:57:57.918Z,60.47
2022-09-14T19:59:59.410Z,60.58
2022-09-14T20:02:01.668Z,60.73
2022-09-14T20:04:03.665Z,60.77
2022-09-14T20:06:09.281Z,61.03
2022-09-14T20:08:10.762Z,61.08
2022-09-14T20:10:12.304Z,61.34
2022-09-14T20:12:13.911Z,61.27
2022-09-14T20:14:19.626Z,61.33
2022-09-14T20:16:22.503Z,61.30
2022-09-14T20:18:24.685Z,61.24
2022-09-14T20:20:26.196Z,61.27
2022-09-14T20:22:27.791Z,61.31
2022-09-14T20:24:31.026Z,61.34
2022-09-14T20:26:32.737Z,61.45
2022-09-14T20:28:34.514Z,61.52
2022-09-14T20:30:36.071Z,61.66
2022-09-14T20:32:37.605Z,61.67
2022-09-14T20:34:39.243Z,61.93
2022-09-14T20:36:41.336Z,62.05
2022-09-14T20:38:50.316Z,62.26
2022-09-14T20:41:02.646Z,62.37
2022-09-14T20:43:05.026Z,62.73
2022-09-14T20:45:06.844Z,62.92
2022-09-14T20:47:08.371Z,63.12
2022-09-14T20:49:13.192Z,63.41
2022-09-14T20:51:19.941Z,63.50
2022-09-14T20:53:22.905Z,63.66
2022-09-14T20:55:24.416Z,63.75
2022-09-14T20:57:25.902Z,63.90
2022-09-14T20:59:27.566Z,64.09
2022-09-14T21:01:30.057Z,64.16
2022-09-14T21:03:31.835Z,64.09
2022-09-14T21:05:33.369Z,64.17
2022-09-14T21:07:35.631Z,64.25
2022-09-14T21:09:37.175Z,64.38
2022-09-14T21:11:38.853Z,64.38
2022-09-14T21:13:40.620Z,64.41
2022-09-14T21:15:42.204Z,64.50
2022-09-14T21:17:43.767Z,64.70
2022-09-14T21:19:45.270Z,64.84
2022-09-14T21:21:47.152Z,65.04
2022-09-14T21:23:50.496Z,65.18
2022-09-14T21:25:55.781Z,65.33
2022-09-14T21:27:57.277Z,65.53
2022-09-14T21:29:58.791Z,65.68
2022-09-14T21:32:00.363Z,65.72
2022-09-14T21:34:02.346Z,65.83
2022-09-14T21:36:04.951Z,65.95
2022-09-14T21:38:06.739Z,66.09
2022-09-14T21:40:08.896Z,66.30
2022-09-14T21:42:10.485Z,66.21
2022-09-14T21:44:13.037Z,66.25
2022-09-14T21:46:14.777Z,66.27
2022-09-14T21:48:17.326Z,66.21
2022-09-14T21:50:18.811Z,66.24
2022-09-14T21:52:20.303Z,66.34
2022-09-14T21:54:22.290Z,66.26
2022-09-14T21:56:24.306Z,66.25
2022-09-14T21:58:25.827Z,66.13
2022-09-14T22:00:31.032Z,65.99
2022-09-14T22:02:33.539Z,66.10
2022-09-14T22:04:35.071Z,65.95
2022-09-14T22:06:36.628Z,66.01
2022-09-14T22:08:39.528Z,66.02
2022-09-14T22:10:41.440Z,66.18
2022-09-14T22:12:44.177Z,66.17
2022-09-14T22:14:46.862Z,66.35
2022-09-14T22:16:48.972Z,66.41
2022-09-14T22:18:51.939Z,66.43
2022-09-14T22:20:57.455Z,66.54
2022-09-14T22:22:59.075Z,66.64
2022-09-14T22:25:00.605Z,66.69
2022-09-14T22:27:04.488Z,66.77
2022-09-14T22:29:06.733Z,66.83
2022-09-14T22:31:08.705Z,66.86
2022-09-14T22:33:10.305Z,66.99
2022-09-14T22:35:12.463Z,66.97
2022-09-14T22:37:14.035Z,66.89
2022-09-14T22:39:17.570Z,66.91
2022-09-14T22:41:19.617Z,66.85
2022-09-14T22:43:21.412Z,66.78
2022-09-14T22:45:23.131Z,66.79
2022-09-14T22:47:24.639Z,66.70
2022-09-14T22:49:26.159Z,66.65
2022-09-14T22:51:28.339Z,66.64
2022-09-14T22:53:30.271Z,66.62
2022-09-14T22:55:31.937Z,66.65
2022-09-14T22:57:33.490Z,66.63
2022-09-14T22:59:35.031Z,66.52
2022-09-14T23:01:38.112Z,66.50
2022-09-14T23:03:39.856Z,66.50
2022-09-14T23:05:48.515Z,66.69
2022-09-14T23:07:50.198Z,66.73
2022-09-14T23:09:51.682Z,66.96
2022-09-14T23:11:53.258Z,67.11
2022-09-14T23:13:55.108Z,67.15
2022-09-14T23:15:56.778Z,67.10
2022-09-14T23:17:58.282Z,67.23
2022-09-14T23:19:59.803Z,67.28
2022-09-14T23:22:02.984Z,67.45
2022-09-14T23:24:05.382Z,67.53
2022-09-14T23:26:07.906Z,67.72
2022-09-14T23:28:10.210Z,67.69
2022-09-14T23:30:12.214Z,67.89
2022-09-14T23:32:13.843Z,67.91
2022-09-14T23:34:15.450Z,67.97
2022-09-14T23:36:17.235Z,68.05
2022-09-14T23:38:19.000Z,68.34
2022-09-14T23:40:20.871Z,68.35
2022-09-14T23:42:22.571Z,68.45
2022-09-14T23:44:24.106Z,68.51
2022-09-14T23:46:25.770Z,68.48
2022-09-14T23:48:27.578Z,68.39
2022-09-14T23:50:29.116Z,68.42
2022-09-14T23:52:30.776Z,68.20
2022-09-14T23:54:32.459Z,68.13
2022-09-14T23:56:35.451Z,67.90
2022-09-14T23:58:36.951Z,67.92
